createdAt,value
2022-07-30T00:01:04.025Z,23.18
2022-07-30T00:02:16.430Z,23.18
2022-07-30T00:03:29.714Z,23.17
2022-07-30T00:04:32.227Z,23.17
2022-07-30T00:05:45.192Z,23.2
2022-07-30T00:06:57.851Z,23.15
2022-07-30T00:08:01.133Z,23.17
2022-07-30T00:09:13.395Z,23.14
2022-07-30T00:10:26.657Z,23.15
2022-07-30T00:11:38.904Z,23.13
2022-07-30T00:12:42.166Z,23.14
2022-07-30T00:13:54.429Z,23.13
2022-07-30T00:15:07.637Z,23.11
2022-07-30T00:16:09.991Z,23.13
2022-07-30T00:17:23.136Z,23.13
2022-07-30T00:18:35.900Z,23.13
2022-07-30T00:19:40.161Z,23.13
2022-07-30T00:20:52.462Z,23.1
2022-07-30T00:22:05.654Z,23.1
2022-07-30T00:23:17.924Z,23.11
2022-07-30T00:24:21.141Z,23.1
2022-07-30T00:25:33.417Z,23.08
2022-07-30T00:26:46.680Z,23.08
2022-07-30T00:27:49.091Z,23.08
2022-07-30T00:29:02.167Z,23.07
2022-07-30T00:30:14.468Z,23.07
2022-07-30T00:31:27.656Z,23.08
2022-07-30T00:32:30.028Z,23.07
2022-07-30T00:33:43.141Z,23.07
2022-07-30T00:34:55.396Z,23.05
2022-07-30T00:35:58.654Z,23.07
2022-07-30T00:37:10.919Z,23.04
2022-07-30T00:38:24.144Z,23.08
2022-07-30T00:39:36.460Z,23.04
2022-07-30T00:40:39.650Z,23.04
2022-07-30T00:41:51.911Z,23.04
2022-07-30T00:43:05.145Z,23.01
2022-07-30T00:44:07.514Z,23.05
2022-07-30T00:45:20.691Z,23.03
2022-07-30T00:46:32.974Z,23.04
2022-07-30T00:47:46.178Z,23.03
2022-07-30T00:48:48.578Z,23.03
2022-07-30T00:50:01.650Z,23.03
2022-07-30T00:51:13.927Z,23.03
2022-07-30T00:52:17.190Z,23.03
2022-07-30T00:53:29.517Z,23.03
2022-07-30T00:54:42.641Z,23.01
2022-07-30T00:55:54.997Z,22.99
2022-07-30T00:56:58.514Z,23.01
2022-07-30T00:58:11.214Z,23.0
2022-07-30T00:59:24.156Z,23.01
2022-07-30T01:00:26.530Z,23.01
2022-07-30T01:01:39.653Z,23.0
2022-07-30T01:02:51.998Z,22.99
2022-07-30T01:04:05.175Z,23.0
2022-07-30T01:05:07.655Z,22.99
2022-07-30T01:06:20.677Z,22.99
2022-07-30T01:07:33.009Z,22.97
2022-07-30T01:08:36.184Z,22.97
2022-07-30T01:09:48.623Z,22.99
2022-07-30T01:11:01.684Z,23.0
2022-07-30T01:12:13.955Z,22.97
2022-07-30T01:13:17.146Z,22.97
2022-07-30T01:14:29.412Z,22.94
2022-07-30T01:15:42.647Z,22.96
2022-07-30T01:16:45.136Z,22.93
2022-07-30T01:17:58.196Z,22.96
2022-07-30T01:19:10.485Z,22.93
2022-07-30T01:20:23.652Z,22.91
2022-07-30T01:21:26.099Z,22.93
2022-07-30T01:22:39.159Z,22.9
2022-07-30T01:23:51.440Z,22.9
2022-07-30T01:24:54.680Z,22.91
2022-07-30T01:26:07.027Z,22.88
2022-07-30T01:27:20.171Z,22.87
2022-07-30T01:28:32.477Z,22.88
2022-07-30T01:29:35.655Z,22.88
2022-07-30T01:30:50.118Z,22.88
2022-07-30T01:32:03.246Z,22.87
2022-07-30T01:33:05.678Z,22.9
2022-07-30T01:34:18.699Z,22.87
2022-07-30T01:35:31.032Z,22.9
2022-07-30T01:36:34.177Z,22.86
2022-07-30T01:37:46.440Z,22.86
2022-07-30T01:38:59.678Z,22.86
2022-07-30T01:40:11.960Z,22.87
2022-07-30T01:41:15.171Z,22.86
2022-07-30T01:42:27.508Z,22.86
2022-07-30T01:43:40.663Z,22.86
2022-07-30T01:44:43.093Z,22.84
2022-07-30T01:45:56.243Z,22.84
2022-07-30T01:47:08.664Z,22.86
2022-07-30T01:48:21.754Z,22.86
2022-07-30T01:49:24.246Z,22.84
2022-07-30T01:50:37.807Z,22.83
2022-07-30T01:51:50.196Z,22.84
2022-07-30T01:52:53.153Z,22.84
2022-07-30T01:54:05.503Z,22.84
2022-07-30T01:55:18.690Z,22.83
2022-07-30T01:56:24.722Z,22.83
2022-07-30T01:57:38.177Z,22.83
2022-07-30T01:58:50.510Z,22.83
2022-07-30T01:59:53.706Z,22.83
2022-07-30T02:01:06.075Z,22.83
2022-07-30T02:02:19.197Z,22.8
2022-07-30T02:03:22.139Z,22.8
2022-07-30T02:04:35.174Z,22.81
2022-07-30T02:05:48.521Z,22.8
2022-07-30T02:06:51.690Z,22.8
2022-07-30T02:08:04.041Z,22.8
2022-07-30T02:09:17.181Z,22.8
2022-07-30T02:10:19.573Z,22.8
2022-07-30T02:11:34.170Z,22.79
2022-07-30T02:12:47.225Z,22.8
2022-07-30T02:13:50.210Z,22.79
2022-07-30T02:15:02.565Z,22.79
2022-07-30T02:16:15.743Z,22.77
2022-07-30T02:17:30.465Z,22.8
2022-07-30T02:18:39.594Z,22.76
2022-07-30T02:19:42.228Z,22.74
2022-07-30T02:20:55.703Z,22.77
2022-07-30T02:21:58.912Z,22.76
2022-07-30T02:23:14.185Z,22.76
2022-07-30T02:24:26.479Z,22.79
2022-07-30T02:25:29.707Z,22.76
2022-07-30T02:26:42.053Z,22.74
2022-07-30T02:27:55.200Z,22.76
2022-07-30T02:29:11.261Z,22.74
2022-07-30T02:30:14.679Z,22.76
2022-07-30T02:31:27.061Z,22.74
2022-07-30T02:32:30.687Z,22.74
2022-07-30T02:33:48.597Z,22.73
2022-07-30T02:34:52.713Z,22.73
2022-07-30T02:36:05.019Z,22.72
2022-07-30T02:37:14.660Z,22.73
2022-07-30T02:38:17.064Z,22.76
2022-07-30T02:39:30.173Z,22.72
2022-07-30T02:40:42.490Z,22.7
2022-07-30T02:41:55.676Z,22.72
2022-07-30T02:42:58.070Z,22.69
2022-07-30T02:44:11.186Z,22.72
2022-07-30T02:45:23.536Z,22.7
2022-07-30T02:46:36.709Z,22.72
2022-07-30T02:47:39.116Z,22.69
2022-07-30T02:48:52.257Z,22.69
2022-07-30T02:50:04.651Z,22.69
2022-07-30T02:51:07.681Z,22.67
2022-07-30T02:52:19.985Z,22.69
2022-07-30T02:53:33.207Z,22.67
2022-07-30T02:54:35.652Z,22.67
2022-07-30T02:55:48.708Z,22.67
2022-07-30T02:57:01.410Z,22.66
2022-07-30T02:58:14.679Z,22.63
2022-07-30T02:59:17.062Z,22.62
2022-07-30T03:00:30.258Z,22.66
2022-07-30T03:01:42.880Z,22.63
2022-07-30T03:02:46.186Z,22.64
2022-07-30T03:03:59.528Z,22.64
2022-07-30T03:05:12.678Z,22.62
2022-07-30T03:06:15.079Z,22.6
2022-07-30T03:07:28.172Z,22.62
2022-07-30T03:08:40.468Z,22.62
2022-07-30T03:09:53.721Z,22.6
2022-07-30T03:10:56.170Z,22.6
2022-07-30T03:12:09.226Z,22.6
2022-07-30T03:13:21.520Z,22.57
2022-07-30T03:14:24.683Z,22.57
2022-07-30T03:15:39.483Z,22.6
2022-07-30T03:16:53.195Z,22.59
2022-07-30T03:17:55.716Z,22.56
2022-07-30T03:19:09.237Z,22.59
2022-07-30T03:20:21.605Z,22.57
2022-07-30T03:21:24.719Z,22.54
2022-07-30T03:22:37.027Z,22.57
2022-07-30T03:23:50.226Z,22.54
2022-07-30T03:25:02.513Z,22.56
2022-07-30T03:26:05.753Z,22.56
2022-07-30T03:27:18.065Z,22.54
2022-07-30T03:28:31.230Z,22.54
2022-07-30T03:29:33.626Z,22.52
2022-07-30T03:30:48.733Z,22.54
2022-07-30T03:32:01.033Z,22.52
2022-07-30T03:33:14.246Z,22.54
2022-07-30T03:34:17.185Z,22.53
2022-07-30T03:35:31.492Z,22.52
2022-07-30T03:36:34.046Z,22.53
2022-07-30T03:37:47.261Z,22.53
2022-07-30T03:38:59.577Z,22.53
2022-07-30T03:40:12.728Z,22.5
2022-07-30T03:41:15.138Z,22.49
2022-07-30T03:42:28.250Z,22.52
2022-07-30T03:43:40.631Z,22.49
2022-07-30T03:44:53.725Z,22.49
2022-07-30T03:45:56.183Z,22.49
2022-07-30T03:47:09.258Z,22.49
2022-07-30T03:48:21.615Z,22.48
2022-07-30T03:49:24.801Z,22.48
2022-07-30T03:50:37.250Z,22.49
2022-07-30T03:51:50.219Z,22.49
2022-07-30T03:53:02.526Z,22.46
2022-07-30T03:54:06.474Z,22.48
2022-07-30T03:55:20.898Z,22.48
2022-07-30T03:56:24.259Z,22.45
2022-07-30T03:57:36.592Z,22.46
2022-07-30T03:58:49.753Z,22.46
2022-07-30T04:00:02.111Z,22.43
2022-07-30T04:01:05.262Z,22.48
2022-07-30T04:02:17.630Z,22.43
2022-07-30T04:03:30.867Z,22.46
2022-07-30T04:04:33.408Z,22.43
2022-07-30T04:05:46.245Z,22.43
2022-07-30T04:06:58.585Z,22.45
2022-07-30T04:09:29.067Z,22.46
2022-07-30T04:10:31.555Z,22.43
2022-07-30T04:11:40.776Z,22.45
2022-07-30T04:12:44.220Z,22.45
2022-07-30T04:13:57.226Z,22.46
2022-07-30T04:16:40.109Z,22.45
2022-07-30T04:18:38.621Z,22.49
2022-07-30T04:19:50.924Z,22.49
2022-07-30T04:20:54.178Z,22.49
2022-07-30T04:22:06.519Z,22.52
2022-07-30T04:23:19.675Z,22.48
2022-07-30T04:24:22.108Z,22.5
2022-07-30T04:25:35.169Z,22.48
2022-07-30T04:26:47.487Z,22.46
2022-07-30T04:28:03.637Z,22.46
2022-07-30T04:29:06.476Z,22.46
2022-07-30T04:30:19.704Z,22.45
2022-07-30T04:31:22.141Z,22.46
2022-07-30T04:32:35.192Z,22.48
2022-07-30T04:33:47.514Z,22.46
2022-07-30T04:34:50.691Z,22.45
2022-07-30T04:36:03.009Z,22.46
2022-07-30T04:37:16.207Z,22.48
2022-07-30T04:38:28.813Z,22.43
2022-07-30T04:39:32.463Z,22.43
2022-07-30T04:40:44.769Z,22.43
2022-07-30T04:41:57.701Z,22.46
2022-07-30T04:43:00.148Z,22.45
2022-07-30T04:44:13.159Z,22.39
2022-07-30T04:45:25.523Z,22.41
2022-07-30T04:46:38.728Z,22.43
2022-07-30T04:47:41.259Z,22.42
2022-07-30T04:48:56.255Z,22.43
2022-07-30T04:49:58.799Z,22.43
2022-07-30T04:51:12.196Z,22.43
2022-07-30T04:52:24.602Z,22.45
2022-07-30T04:53:37.682Z,22.45
2022-07-30T04:54:40.096Z,22.42
2022-07-30T04:55:53.175Z,22.43
2022-07-30T04:57:05.942Z,22.43
2022-07-30T04:58:09.212Z,22.43
2022-07-30T04:59:21.528Z,22.45
2022-07-30T05:00:39.020Z,22.45
2022-07-30T05:01:43.427Z,22.45
2022-07-30T05:02:56.701Z,22.43
2022-07-30T05:03:59.117Z,22.45
2022-07-30T05:05:12.268Z,22.42
2022-07-30T05:06:24.743Z,22.43
2022-07-30T05:07:37.676Z,22.46
2022-07-30T05:08:40.091Z,22.43
2022-07-30T05:09:53.215Z,22.43
2022-07-30T05:11:05.519Z,22.43
2022-07-30T05:12:08.693Z,22.45
2022-07-30T05:13:22.387Z,22.45
2022-07-30T05:14:30.703Z,22.42
2022-07-30T05:15:43.245Z,22.48
2022-07-30T05:16:56.699Z,22.49
2022-07-30T05:17:59.111Z,22.46
2022-07-30T05:19:12.185Z,22.45
2022-07-30T05:20:24.504Z,22.43
2022-07-30T05:21:28.673Z,22.43
2022-07-30T05:22:42.806Z,22.42
2022-07-30T05:23:54.194Z,22.43
2022-07-30T05:24:56.605Z,22.42
2022-07-30T05:26:09.669Z,22.41
2022-07-30T05:27:22.007Z,22.42
2022-07-30T05:28:35.182Z,22.42
2022-07-30T05:29:39.707Z,22.42
2022-07-30T05:30:54.836Z,22.42
2022-07-30T05:32:02.614Z,22.42
2022-07-30T05:33:15.347Z,22.42
2022-07-30T05:34:18.449Z,22.45
2022-07-30T05:35:31.733Z,22.42
2022-07-30T05:36:44.036Z,22.43
2022-07-30T05:37:47.194Z,22.43
2022-07-30T05:38:59.553Z,22.43
2022-07-30T05:40:12.726Z,22.43
2022-07-30T05:41:31.631Z,22.43
2022-07-30T05:42:26.703Z,22.43
2022-07-30T05:43:39.028Z,22.42
2022-07-30T05:44:52.699Z,22.42
2022-07-30T05:45:55.183Z,22.42
2022-07-30T05:47:08.238Z,22.42
2022-07-30T05:48:20.610Z,22.41
2022-07-30T05:49:33.693Z,22.41
2022-07-30T05:50:55.989Z,22.41
2022-07-30T05:51:50.371Z,22.41
2022-07-30T05:53:02.856Z,22.39
2022-07-30T05:54:06.223Z,22.42
2022-07-30T05:55:18.545Z,22.41
2022-07-30T05:56:31.720Z,22.41
2022-07-30T05:57:34.205Z,22.42
2022-07-30T05:58:47.229Z,22.43
2022-07-30T05:59:59.546Z,22.42
2022-07-30T06:01:32.308Z,22.42
2022-07-30T06:02:15.020Z,22.39
2022-07-30T06:03:27.328Z,22.42
2022-07-30T06:04:40.259Z,22.43
2022-07-30T06:05:48.910Z,22.42
2022-07-30T06:07:02.617Z,22.45
2022-07-30T06:08:05.889Z,22.45
2022-07-30T06:09:22.390Z,22.48
2022-07-30T06:10:29.073Z,22.46
2022-07-30T06:11:42.217Z,22.45
2022-07-30T06:12:44.692Z,22.45
2022-07-30T06:13:57.749Z,22.48
2022-07-30T06:15:10.194Z,22.45
2022-07-30T06:16:13.335Z,22.48
2022-07-30T06:17:25.752Z,22.49
2022-07-30T06:18:38.709Z,22.46
2022-07-30T06:19:41.377Z,22.46
2022-07-30T06:20:54.719Z,22.46
2022-07-30T06:22:07.293Z,22.48
2022-07-30T06:23:20.706Z,22.48
2022-07-30T06:24:23.100Z,22.46
2022-07-30T06:25:32.239Z,22.48
2022-07-30T06:26:44.550Z,22.46
2022-07-30T06:27:57.716Z,22.46
2022-07-30T06:29:00.167Z,22.46
2022-07-30T06:30:13.359Z,22.45
2022-07-30T06:31:26.788Z,22.46
2022-07-30T06:32:39.715Z,22.48
2022-07-30T06:33:42.157Z,22.46
2022-07-30T06:35:01.207Z,22.45
2022-07-30T06:36:06.972Z,22.46
2022-07-30T06:37:10.209Z,22.45
2022-07-30T06:38:22.543Z,22.45
2022-07-30T06:39:57.863Z,22.49
2022-07-30T06:40:41.139Z,22.49
2022-07-30T06:41:53.496Z,22.49
2022-07-30T06:43:06.706Z,22.49
2022-07-30T06:44:09.112Z,22.48
2022-07-30T06:45:23.725Z,22.48
2022-07-30T06:46:36.224Z,22.53
2022-07-30T06:47:39.244Z,22.62
2022-07-30T06:48:51.504Z,22.72
2022-07-30T06:50:04.706Z,22.86
2022-07-30T06:51:16.925Z,22.97
2022-07-30T06:52:20.264Z,23.11
2022-07-30T06:53:32.458Z,23.21
2022-07-30T06:54:41.254Z,23.34
2022-07-30T06:55:54.820Z,23.41
2022-07-30T06:57:02.128Z,23.55
2022-07-30T06:58:14.589Z,23.64
2022-07-30T06:59:17.750Z,23.69
2022-07-30T07:00:30.566Z,23.79
2022-07-30T07:01:43.327Z,23.86
2022-07-30T07:02:55.585Z,23.92
2022-07-30T07:03:58.804Z,23.98
2022-07-30T07:05:11.054Z,24.02
2022-07-30T07:06:23.756Z,24.05
2022-07-30T07:07:40.644Z,24.1
2022-07-30T07:08:44.733Z,24.13
2022-07-30T07:11:13.440Z,24.19
2022-07-30T07:12:05.805Z,24.2
2022-07-30T07:13:18.471Z,24.23
2022-07-30T07:14:30.550Z,24.26
2022-07-30T07:15:43.438Z,24.29
2022-07-30T07:16:48.866Z,24.29
2022-07-30T07:18:02.242Z,24.32
2022-07-30T07:19:04.695Z,24.34
2022-07-30T07:20:17.441Z,24.36
2022-07-30T07:21:29.481Z,24.33
2022-07-30T07:22:42.473Z,24.36
2022-07-30T07:23:47.625Z,24.37
2022-07-30T07:25:00.476Z,24.37
2022-07-30T07:26:02.681Z,24.4
2022-07-30T07:27:15.850Z,24.4
2022-07-30T07:28:41.860Z,24.41
2022-07-30T07:29:34.227Z,24.37
2022-07-30T07:30:47.409Z,24.37
2022-07-30T07:32:05.560Z,24.37
2022-07-30T07:33:10.376Z,24.4
2022-07-30T07:34:16.975Z,24.4
2022-07-30T07:35:29.882Z,24.44
2022-07-30T07:36:32.093Z,24.44
2022-07-30T07:37:44.896Z,24.43
2022-07-30T07:38:56.940Z,24.43
2022-07-30T07:40:09.923Z,24.43
2022-07-30T07:41:12.134Z,24.46
2022-07-30T07:42:24.877Z,24.49
2022-07-30T07:43:36.946Z,24.47
2022-07-30T07:44:49.873Z,24.49
2022-07-30T07:45:52.093Z,24.47
2022-07-30T07:47:04.880Z,24.47
2022-07-30T07:48:16.915Z,24.46
2022-07-30T07:49:20.006Z,24.46
2022-07-30T07:50:32.136Z,24.47
2022-07-30T07:51:48.044Z,24.46
2022-07-30T07:52:51.026Z,24.47
2022-07-30T07:54:20.467Z,24.47
2022-07-30T07:55:14.215Z,24.44
2022-07-30T07:56:26.920Z,24.47
2022-07-30T07:57:29.375Z,24.46
2022-07-30T07:58:42.374Z,24.47
2022-07-30T07:59:54.428Z,24.47
2022-07-30T08:01:07.429Z,24.47
2022-07-30T08:02:10.162Z,24.46
2022-07-30T08:03:22.901Z,24.46
2022-07-30T08:04:34.968Z,24.46
2022-07-30T08:05:58.016Z,24.46
2022-07-30T08:06:48.495Z,24.46
2022-07-30T08:08:00.540Z,24.47
2022-07-30T08:09:13.395Z,24.49
2022-07-30T08:10:15.584Z,24.5
2022-07-30T08:11:28.428Z,24.5
2022-07-30T08:12:40.485Z,24.49
2022-07-30T08:13:53.394Z,24.49
2022-07-30T08:14:55.531Z,24.5
2022-07-30T08:16:08.426Z,24.49
2022-07-30T08:17:15.085Z,24.5
2022-07-30T08:18:27.925Z,24.5
2022-07-30T08:19:39.982Z,24.47
2022-07-30T08:20:52.879Z,24.49
2022-07-30T08:21:55.030Z,24.49
2022-07-30T08:23:07.889Z,24.49
2022-07-30T08:24:20.155Z,24.46
2022-07-30T08:25:24.263Z,24.49
2022-07-30T08:26:36.828Z,24.5
2022-07-30T08:28:35.537Z,24.49
2022-07-30T08:28:59.700Z,24.49
2022-07-30T08:30:01.889Z,24.5
2022-07-30T08:31:14.892Z,24.49
2022-07-30T08:32:26.951Z,24.51
2022-07-30T08:33:39.909Z,24.51
2022-07-30T08:34:41.984Z,24.54
2022-07-30T08:36:02.868Z,24.53
2022-07-30T08:37:06.738Z,24.54
2022-07-30T08:38:19.391Z,24.53
2022-07-30T08:39:21.599Z,24.56
2022-07-30T08:40:34.402Z,24.53
2022-07-30T08:42:06.388Z,24.51
2022-07-30T08:42:59.906Z,24.57
2022-07-30T08:44:02.141Z,24.57
2022-07-30T08:45:15.170Z,24.57
2022-07-30T08:46:27.364Z,24.54
2022-07-30T08:47:31.215Z,24.56
2022-07-30T08:48:43.254Z,24.54
2022-07-30T08:49:56.446Z,24.51
2022-07-30T08:50:59.333Z,24.51
2022-07-30T08:52:53.497Z,24.5
2022-07-30T08:53:26.408Z,24.5
2022-07-30T08:54:29.422Z,24.51
2022-07-30T08:55:42.437Z,24.53
2022-07-30T08:56:54.441Z,24.56
2022-07-30T08:58:06.908Z,24.53
2022-07-30T08:59:09.113Z,24.57
2022-07-30T09:00:21.923Z,24.57
2022-07-30T09:01:33.978Z,24.56
2022-07-30T09:02:36.926Z,24.6
2022-07-30T09:03:48.989Z,24.57
2022-07-30T09:05:02.085Z,24.57
2022-07-30T09:06:14.182Z,24.57
2022-07-30T09:07:16.944Z,24.57
2022-07-30T09:08:28.937Z,24.54
2022-07-30T09:09:41.910Z,24.57
2022-07-30T09:10:53.938Z,24.56
2022-07-30T09:11:56.943Z,24.57
2022-07-30T09:13:09.006Z,24.57
2022-07-30T09:14:21.922Z,24.57
2022-07-30T09:15:33.045Z,24.61
2022-07-30T09:16:36.200Z,24.58
2022-07-30T09:17:48.136Z,24.6
2022-07-30T09:19:00.945Z,24.63
2022-07-30T09:20:03.839Z,24.63
2022-07-30T09:21:16.407Z,24.61
2022-07-30T09:22:28.501Z,24.61
2022-07-30T09:23:41.427Z,24.61
2022-07-30T09:24:43.600Z,24.6
2022-07-30T09:25:56.459Z,24.61
2022-07-30T09:27:08.496Z,24.61
2022-07-30T09:28:21.413Z,24.6
2022-07-30T09:29:23.555Z,24.58
2022-07-30T09:30:36.436Z,24.6
2022-07-30T09:31:48.478Z,24.6
2022-07-30T09:32:51.460Z,24.6
2022-07-30T09:34:03.482Z,24.61
2022-07-30T09:35:16.413Z,24.63
2022-07-30T09:36:28.427Z,24.6
2022-07-30T09:37:31.901Z,24.65
2022-07-30T09:38:43.981Z,24.64
2022-07-30T09:39:59.694Z,24.64
2022-07-30T09:41:12.173Z,24.65
2022-07-30T09:42:10.417Z,24.64
2022-07-30T09:43:27.464Z,24.65
2022-07-30T09:44:30.925Z,24.64
2022-07-30T09:45:42.955Z,24.65
2022-07-30T09:46:50.937Z,24.67
2022-07-30T09:48:02.983Z,24.64
2022-07-30T09:49:16.030Z,24.63
2022-07-30T09:50:30.279Z,24.64
2022-07-30T09:51:54.307Z,24.67
2022-07-30T09:52:44.287Z,24.68
2022-07-30T09:53:51.236Z,24.7
2022-07-30T09:55:04.456Z,24.71
2022-07-30T09:56:09.425Z,24.7
2022-07-30T09:57:25.915Z,24.74
2022-07-30T09:58:29.987Z,24.71
2022-07-30T09:59:42.938Z,24.72
2022-07-30T10:02:00.789Z,24.71
2022-07-30T10:03:33.169Z,24.71
2022-07-30T10:04:17.925Z,24.7
2022-07-30T10:05:29.973Z,24.67
2022-07-30T10:06:42.918Z,24.68
2022-07-30T10:07:45.070Z,24.67
2022-07-30T10:08:58.445Z,24.68
2022-07-30T10:10:11.164Z,24.65
2022-07-30T10:11:24.070Z,24.67
2022-07-30T10:12:26.329Z,24.7
2022-07-30T10:13:39.987Z,24.67
2022-07-30T10:14:43.969Z,24.65
2022-07-30T10:15:56.954Z,24.68
2022-07-30T10:17:09.021Z,24.67
2022-07-30T10:18:21.930Z,24.65
2022-07-30T10:19:39.812Z,24.67
2022-07-30T10:20:33.431Z,24.7
2022-07-30T10:21:47.091Z,24.67
2022-07-30T10:22:59.962Z,24.7
2022-07-30T10:24:02.207Z,24.7
2022-07-30T10:25:16.249Z,24.7
2022-07-30T10:26:28.752Z,24.75
2022-07-30T10:27:57.708Z,24.77
2022-07-30T10:28:50.529Z,24.8
2022-07-30T10:29:52.706Z,24.84
2022-07-30T10:31:47.059Z,24.87
2022-07-30T10:32:12.515Z,24.88
2022-07-30T10:33:34.498Z,24.91
2022-07-30T10:34:42.530Z,24.95
2022-07-30T10:35:45.074Z,24.97
2022-07-30T10:36:52.443Z,24.97
2022-07-30T10:38:04.489Z,25.0
2022-07-30T10:39:17.968Z,25.01
2022-07-30T10:40:23.364Z,25.02
2022-07-30T10:41:44.036Z,25.01
2022-07-30T10:42:39.958Z,25.02
2022-07-30T10:43:53.937Z,25.05
2022-07-30T10:45:25.618Z,25.07
2022-07-30T10:46:19.911Z,25.08
2022-07-30T10:47:29.845Z,25.09
2022-07-30T10:48:29.456Z,25.11
2022-07-30T10:49:43.110Z,25.08
2022-07-30T10:50:49.467Z,25.14
2022-07-30T10:52:01.469Z,25.15
2022-07-30T10:53:14.466Z,25.15
2022-07-30T10:54:26.404Z,25.18
2022-07-30T10:55:37.087Z,25.16
2022-07-30T10:56:41.379Z,25.21
2022-07-30T10:57:54.523Z,25.21
2022-07-30T10:58:58.173Z,25.22
2022-07-30T11:00:12.466Z,25.25
2022-07-30T11:01:18.739Z,25.28
2022-07-30T11:02:31.486Z,25.28
2022-07-30T11:03:45.072Z,25.29
2022-07-30T11:04:47.952Z,25.29
2022-07-30T11:05:59.948Z,25.31
2022-07-30T11:07:17.113Z,25.31
2022-07-30T11:08:19.826Z,25.32
2022-07-30T11:09:31.461Z,25.31
2022-07-30T11:10:35.657Z,25.33
2022-07-30T11:12:01.072Z,25.36
2022-07-30T11:13:12.971Z,25.38
2022-07-30T11:14:05.983Z,25.38
2022-07-30T11:15:19.731Z,25.4
2022-07-30T11:16:32.068Z,25.42
2022-07-30T11:17:35.458Z,25.46
2022-07-30T11:18:47.926Z,25.49
2022-07-30T11:20:21.433Z,25.46
2022-07-30T11:21:06.927Z,25.49
2022-07-30T11:22:18.889Z,25.51
2022-07-30T11:23:26.746Z,25.52
2022-07-30T11:24:40.436Z,25.53
2022-07-30T11:25:51.502Z,25.56
2022-07-30T11:26:57.906Z,25.55
2022-07-30T11:28:09.863Z,25.58
2022-07-30T11:29:12.958Z,25.59
2022-07-30T11:30:26.311Z,25.59
2022-07-30T11:31:55.042Z,25.6
2022-07-30T11:32:40.142Z,25.6
2022-07-30T11:33:52.109Z,25.62
2022-07-30T11:35:00.447Z,25.63
2022-07-30T11:36:12.397Z,25.6
2022-07-30T11:37:31.882Z,25.62
2022-07-30T11:38:34.626Z,25.65
2022-07-30T11:39:47.453Z,25.63
2022-07-30T11:40:49.517Z,25.62
2022-07-30T11:42:02.754Z,25.65
2022-07-30T11:43:14.974Z,25.65
2022-07-30T11:44:17.936Z,25.63
2022-07-30T11:45:29.946Z,25.65
2022-07-30T11:46:42.943Z,25.65
2022-07-30T11:47:55.049Z,25.67
2022-07-30T11:48:57.997Z,25.65
2022-07-30T11:50:10.053Z,25.62
2022-07-30T11:51:22.915Z,25.63
2022-07-30T11:52:25.029Z,25.63
2022-07-30T11:53:37.936Z,25.63
2022-07-30T11:54:49.928Z,25.65
2022-07-30T11:56:02.446Z,25.65
2022-07-30T11:57:04.936Z,25.65
2022-07-30T11:58:17.960Z,25.65
2022-07-30T11:59:29.931Z,25.65
2022-07-30T12:00:32.945Z,25.65
2022-07-30T12:01:44.899Z,25.66
2022-07-30T12:03:02.401Z,25.67
2022-07-30T12:04:06.406Z,25.66
2022-07-30T12:05:18.917Z,25.69
2022-07-30T12:06:21.024Z,25.69
2022-07-30T12:07:33.954Z,25.69
2022-07-30T12:08:45.945Z,25.73
2022-07-30T12:09:58.460Z,25.76
2022-07-30T12:11:00.579Z,25.73
2022-07-30T12:12:13.448Z,25.76
2022-07-30T12:13:45.335Z,25.77
2022-07-30T12:14:38.935Z,25.76
2022-07-30T12:15:41.081Z,25.8
2022-07-30T12:16:53.982Z,25.77
2022-07-30T12:18:25.195Z,25.8
2022-07-30T12:19:09.845Z,25.82
2022-07-30T12:20:21.846Z,25.83
2022-07-30T12:21:34.957Z,25.86
2022-07-30T12:22:37.073Z,25.89
2022-07-30T12:23:49.923Z,25.9
2022-07-30T12:25:01.858Z,25.93
2022-07-30T12:26:14.447Z,25.95
2022-07-30T12:27:16.480Z,25.95
2022-07-30T12:28:28.963Z,25.97
2022-07-30T12:29:40.910Z,25.97
2022-07-30T12:30:53.457Z,26.0
2022-07-30T12:31:55.506Z,26.01
2022-07-30T12:33:08.454Z,26.0
2022-07-30T12:34:20.403Z,26.01
2022-07-30T12:35:32.983Z,26.04
2022-07-30T12:36:35.081Z,26.06
2022-07-30T12:37:47.981Z,26.06
2022-07-30T12:39:00.138Z,26.06
2022-07-30T12:40:14.967Z,26.09
2022-07-30T12:41:17.552Z,26.1
2022-07-30T12:42:30.445Z,26.14
2022-07-30T12:43:42.372Z,26.16
2022-07-30T12:44:45.452Z,26.14
2022-07-30T12:45:57.374Z,26.16
2022-07-30T12:47:09.962Z,26.2
2022-07-30T12:48:12.093Z,26.21
2022-07-30T12:49:26.880Z,26.23
2022-07-30T12:50:39.794Z,26.23
2022-07-30T12:51:42.467Z,26.25
2022-07-30T12:52:56.933Z,26.24
2022-07-30T12:54:09.468Z,26.24
2022-07-30T12:55:11.544Z,26.27
2022-07-30T12:56:24.456Z,26.27
2022-07-30T12:57:36.418Z,26.28
2022-07-30T12:58:48.962Z,26.3
2022-07-30T12:59:52.568Z,26.31
2022-07-30T13:01:05.470Z,26.35
2022-07-30T13:02:17.368Z,26.33
2022-07-30T13:03:19.978Z,26.37
2022-07-30T13:04:32.073Z,26.38
2022-07-30T13:05:45.989Z,26.4
2022-07-30T13:06:47.993Z,26.42
2022-07-30T13:08:00.476Z,26.44
2022-07-30T13:09:12.376Z,26.44
2022-07-30T13:10:30.029Z,26.45
2022-07-30T13:11:34.539Z,26.48
2022-07-30T13:12:37.471Z,26.46
2022-07-30T13:13:49.370Z,26.49
2022-07-30T13:15:01.953Z,26.49
2022-07-30T13:16:13.791Z,26.54
2022-07-30T13:17:16.504Z,26.51
2022-07-30T13:18:28.388Z,26.54
2022-07-30T13:19:40.957Z,26.55
2022-07-30T13:20:52.784Z,26.6
2022-07-30T13:21:55.498Z,26.57
2022-07-30T13:23:07.381Z,26.58
2022-07-30T13:24:19.962Z,26.6
2022-07-30T13:25:38.894Z,26.61
2022-07-30T13:26:43.496Z,26.62
2022-07-30T13:27:45.547Z,26.64
2022-07-30T13:29:01.514Z,26.67
2022-07-30T13:30:04.030Z,26.67
2022-07-30T13:31:16.462Z,26.67
2022-07-30T13:32:28.315Z,26.72
2022-07-30T13:33:40.966Z,26.68
2022-07-30T13:34:42.946Z,26.72
2022-07-30T13:35:55.485Z,26.72
2022-07-30T13:37:07.331Z,26.76
2022-07-30T13:38:19.989Z,26.74
2022-07-30T13:39:22.027Z,26.74
2022-07-30T13:40:34.482Z,26.72
2022-07-30T13:41:46.352Z,26.74
2022-07-30T13:42:58.995Z,26.72
2022-07-30T13:44:00.967Z,26.74
2022-07-30T13:45:13.528Z,26.75
2022-07-30T13:46:25.449Z,26.74
2022-07-30T13:47:37.982Z,26.78
2022-07-30T13:48:40.050Z,26.74
2022-07-30T13:49:52.510Z,26.72
2022-07-30T13:51:04.263Z,26.75
2022-07-30T13:52:16.970Z,26.74
2022-07-30T13:53:19.144Z,26.74
2022-07-30T13:54:31.994Z,26.74
2022-07-30T13:55:43.904Z,26.75
2022-07-30T13:56:56.503Z,26.76
2022-07-30T13:57:58.633Z,26.76
2022-07-30T13:59:11.506Z,26.75
2022-07-30T14:00:23.394Z,26.75
2022-07-30T14:01:36.046Z,26.74
2022-07-30T14:02:38.194Z,26.74
2022-07-30T14:03:51.164Z,26.74
2022-07-30T14:05:04.438Z,26.74
2022-07-30T14:06:17.481Z,26.74
2022-07-30T14:07:19.539Z,26.72
2022-07-30T14:08:31.976Z,26.75
2022-07-30T14:09:44.975Z,26.72
2022-07-30T14:10:49.982Z,26.74
2022-07-30T14:12:01.881Z,26.75
2022-07-30T14:13:19.601Z,26.72
2022-07-30T14:14:23.512Z,26.76
2022-07-30T14:15:26.496Z,26.75
2022-07-30T14:16:44.629Z,26.72
2022-07-30T14:17:56.594Z,26.74
2022-07-30T14:18:58.917Z,26.75
2022-07-30T14:20:11.467Z,26.75
2022-07-30T14:21:23.349Z,26.75
2022-07-30T14:22:25.980Z,26.74
2022-07-30T14:23:37.839Z,26.74
2022-07-30T14:24:50.468Z,26.74
2022-07-30T14:26:02.341Z,26.76
2022-07-30T14:27:05.446Z,26.75
2022-07-30T14:28:17.549Z,26.75
2022-07-30T14:29:29.987Z,26.74
2022-07-30T14:30:41.872Z,26.72
2022-07-30T14:31:44.493Z,26.72
2022-07-30T14:33:00.497Z,26.75
2022-07-30T14:34:08.846Z,26.75
2022-07-30T14:35:20.880Z,26.75
2022-07-30T14:36:25.018Z,26.75
2022-07-30T14:37:36.876Z,26.75
2022-07-30T14:38:49.474Z,26.76
2022-07-30T14:39:51.515Z,26.75
2022-07-30T14:41:03.983Z,26.76
2022-07-30T14:42:15.789Z,26.75
2022-07-30T14:43:28.499Z,26.76
2022-07-30T14:44:30.543Z,26.76
2022-07-30T14:45:43.023Z,26.75
2022-07-30T14:46:54.907Z,26.76
2022-07-30T14:48:07.478Z,26.75
2022-07-30T14:49:09.630Z,26.76
2022-07-30T14:50:22.491Z,26.75
2022-07-30T14:51:34.728Z,26.78
2022-07-30T14:52:47.546Z,26.76
2022-07-30T14:53:49.713Z,26.78
2022-07-30T14:55:03.979Z,26.76
2022-07-30T14:56:08.745Z,26.78
2022-07-30T14:57:21.501Z,26.78
2022-07-30T14:58:33.391Z,26.76
2022-07-30T14:59:47.501Z,26.76
2022-07-30T15:00:49.574Z,26.76
2022-07-30T15:02:02.530Z,26.81
2022-07-30T15:03:14.612Z,26.76
2022-07-30T15:04:17.537Z,26.78
2022-07-30T15:05:29.440Z,26.79
2022-07-30T15:06:42.030Z,26.79
2022-07-30T15:07:53.911Z,26.78
2022-07-30T15:08:56.487Z,26.81